createdAt,value
2023-05-09T00:02:04.575Z,99664.13
2023-05-09T00:04:36.147Z,99663.72
2023-05-09T00:07:06.628Z,99671.00
2023-05-09T00:09:37.117Z,99655.59
2023-05-09T00:12:10.748Z,99649.66
2023-05-09T00:14:43.512Z,99639.31
2023-05-09T00:17:15.341Z,99637.06
2023-05-09T00:19:46.203Z,99639.75
2023-05-09T00:22:16.696Z,99635.47
2023-05-09T00:24:47.348Z,99635.47
2023-05-09T00:27:18.664Z,99631.81
2023-05-09T00:29:50.822Z,99640.59
2023-05-09T00:32:21.373Z,99639.03
2023-05-09T00:34:51.812Z,99636.81
2023-05-09T00:37:22.293Z,99633.63
2023-05-09T00:39:52.856Z,99638.97
2023-05-09T00:42:23.290Z,99633.63
2023-05-09T00:44:55.564Z,99641.09
2023-05-09T00:47:27.002Z,99641.16
2023-05-09T00:50:00.852Z,99644.81
2023-05-09T00:52:31.528Z,99641.50
2023-05-09T00:55:02.804Z,99563.97
2023-05-09T00:57:33.387Z,99656.59
2023-05-09T01:00:06.283Z,99657.16
2023-05-09T01:02:36.877Z,99649.69
2023-05-09T01:05:07.926Z,99666.81
2023-05-09T01:07:46.371Z,99664.13
2023-05-09T01:10:24.375Z,99662.06
2023-05-09T01:13:02.161Z,99671.19
2023-05-09T01:15:39.229Z,99667.84
2023-05-09T01:18:15.466Z,99674.34
2023-05-09T01:20:49.108Z,99682.59
2023-05-09T01:23:38.322Z,99689.94
2023-05-09T01:26:15.589Z,99669.78
2023-05-09T01:29:08.721Z,99696.72
2023-05-09T01:31:44.011Z,99680.00
2023-05-09T01:34:17.644Z,99696.91
2023-05-09T01:36:52.882Z,99697.22
2023-05-09T01:39:24.975Z,99656.06
2023-05-09T01:41:57.889Z,99657.59
2023-05-09T01:44:30.524Z,99672.03
2023-05-09T01:47:03.436Z,99690.97
2023-05-09T01:49:38.941Z,99687.44
2023-05-09T01:52:16.136Z,99679.00
2023-05-09T01:54:49.874Z,99685.19
2023-05-09T01:57:23.350Z,99668.22
2023-05-09T01:59:55.169Z,99675.28
2023-05-09T02:02:28.684Z,99666.78
2023-05-09T02:05:00.427Z,99647.53
2023-05-09T02:07:32.475Z,99638.72
2023-05-09T02:10:05.720Z,99640.38
2023-05-09T02:12:36.486Z,99651.13
2023-05-09T02:15:07.870Z,99647.41
2023-05-09T02:17:40.000Z,99641.19
2023-05-09T02:20:12.331Z,99644.47
2023-05-09T02:22:44.789Z,99643.59
2023-05-09T02:25:17.613Z,99626.44
2023-05-09T02:27:49.283Z,99618.59
2023-05-09T02:30:25.220Z,99632.31
2023-05-09T02:33:02.279Z,99646.19
2023-05-09T02:35:33.192Z,99623.94
2023-05-09T02:38:03.757Z,99595.97
2023-05-09T02:40:34.395Z,99630.66
2023-05-09T02:43:05.063Z,99532.31
2023-05-09T02:45:35.535Z,99630.44
2023-05-09T02:48:09.172Z,99566.28
2023-05-09T02:50:42.725Z,99629.16
2023-05-09T02:53:13.289Z,99606.78
2023-05-09T02:55:43.740Z,99617.19
2023-05-09T02:58:15.094Z,99625.06
2023-05-09T03:00:46.107Z,99589.03
2023-05-09T03:03:18.821Z,99622.72
2023-05-09T03:05:49.388Z,99622.66
2023-05-09T03:08:19.946Z,99619.22
2023-05-09T03:10:50.334Z,99612.19
2023-05-09T03:13:20.914Z,99612.00
2023-05-09T03:15:51.585Z,99600.50
2023-05-09T03:18:23.863Z,99603.97
2023-05-09T03:20:54.377Z,99604.88
2023-05-09T03:23:24.985Z,99599.81
2023-05-09T03:25:57.382Z,99597.97
2023-05-09T03:28:27.848Z,99609.25
2023-05-09T03:30:58.849Z,99606.75
2023-05-09T03:33:31.108Z,99603.34
2023-05-09T03:36:01.533Z,99610.16
2023-05-09T03:38:32.106Z,99610.16
2023-05-09T03:41:03.176Z,99610.06
2023-05-09T03:43:33.603Z,99610.06
2023-05-09T03:46:04.826Z,99610.16
2023-05-09T03:48:36.839Z,99621.47
2023-05-09T03:51:07.857Z,99618.88
2023-05-09T03:53:38.290Z,99618.97
2023-05-09T03:56:09.243Z,99623.31
2023-05-09T03:58:39.675Z,99613.81
2023-05-09T04:01:10.139Z,99606.84
2023-05-09T04:03:42.419Z,99610.28
2023-05-09T04:06:12.967Z,99610.28
2023-05-09T04:08:43.493Z,99592.84
2023-05-09T04:11:14.002Z,99591.06
2023-05-09T04:13:44.414Z,99603.25
2023-05-09T04:16:14.917Z,99606.69
2023-05-09T04:18:46.995Z,99600.59
2023-05-09T04:21:17.529Z,99591.06
2023-05-09T04:23:47.950Z,99605.63
2023-05-09T04:26:20.414Z,99601.03
2023-05-09T04:28:52.930Z,99604.50
2023-05-09T04:31:25.128Z,99612.22
2023-05-09T04:33:59.123Z,99625.16
2023-05-09T04:36:30.139Z,99616.44
2023-05-09T04:39:00.607Z,99613.16
2023-05-09T04:41:31.099Z,99616.59
2023-05-09T04:44:01.678Z,99618.44
2023-05-09T04:46:32.203Z,99614.91
2023-05-09T04:49:04.403Z,99617.50
2023-05-09T04:51:34.867Z,99621.03
2023-05-09T04:54:05.889Z,99627.16
2023-05-09T04:56:36.759Z,99632.44
2023-05-09T04:59:07.293Z,99635.94
2023-05-09T05:01:37.907Z,99636.06
2023-05-09T05:04:10.399Z,99630.88
2023-05-09T05:06:40.834Z,99666.72
2023-05-09T05:09:11.590Z,99640.75
2023-05-09T05:11:50.105Z,99675.53
2023-05-09T05:14:27.731Z,99675.78
2023-05-09T05:16:58.228Z,99680.19
2023-05-09T05:19:30.358Z,99682.00
2023-05-09T05:22:01.418Z,99684.59
2023-05-09T05:24:32.011Z,99681.13
2023-05-09T05:27:02.550Z,99683.72
2023-05-09T05:29:34.139Z,99677.75
2023-05-09T05:32:04.635Z,99686.41
2023-05-09T05:34:36.684Z,99676.88
2023-05-09T05:37:07.214Z,99680.28
2023-05-09T05:39:37.558Z,99675.91
2023-05-09T05:42:08.137Z,99680.19
2023-05-09T05:44:38.595Z,99682.78
2023-05-09T05:47:09.178Z,99686.22
2023-05-09T05:49:41.298Z,99691.41
2023-05-09T05:52:11.778Z,99686.22
2023-05-09T05:54:42.365Z,99677.59
2023-05-09T05:57:12.710Z,99682.75
2023-05-09T05:59:43.117Z,99692.28
2023-05-09T06:02:13.533Z,99644.97
2023-05-09T06:04:45.560Z,99691.41
2023-05-09T06:07:16.593Z,99688.03
2023-05-09T06:09:47.065Z,99693.22
2023-05-09T06:12:18.614Z,99673.38
2023-05-09T06:14:49.309Z,99682.03
2023-05-09T06:17:19.847Z,99685.44
2023-05-09T06:19:52.035Z,99690.66
2023-05-09T06:22:22.439Z,99693.28
2023-05-09T06:24:52.924Z,99703.69
2023-05-09T06:27:23.483Z,99695.09
2023-05-09T06:29:53.973Z,99696.81
2023-05-09T06:32:25.824Z,99693.38
2023-05-09T06:34:57.899Z,99695.16
2023-05-09T06:37:28.347Z,99702.09
2023-05-09T06:39:58.773Z,99710.72
2023-05-09T06:42:29.421Z,99716.78
2023-05-09T06:44:59.873Z,99724.56
2023-05-09T06:47:30.335Z,99733.19
2023-05-09T06:50:02.353Z,99721.94
2023-05-09T06:52:32.742Z,99731.44
2023-05-09T06:55:03.219Z,99721.97
2023-05-09T06:57:33.777Z,99734.88
2023-05-09T07:00:05.739Z,99719.22
2023-05-09T07:02:36.415Z,99732.97
2023-05-09T07:05:09.391Z,99729.56
2023-05-09T07:07:39.963Z,99746.03
2023-05-09T07:10:13.245Z,99754.72
2023-05-09T07:12:44.731Z,99721.09
2023-05-09T07:15:22.775Z,99757.34
2023-05-09T07:17:59.482Z,99759.94
2023-05-09T07:20:32.004Z,99752.19
2023-05-09T07:23:04.368Z,99755.59
2023-05-09T07:25:34.964Z,99753.88
2023-05-09T07:28:05.471Z,99759.91
2023-05-09T07:30:35.975Z,99755.63
2023-05-09T07:33:07.531Z,99762.53
2023-05-09T07:35:39.813Z,99741.81
2023-05-09T07:38:10.295Z,99764.22
2023-05-09T07:40:40.835Z,99781.50
2023-05-09T07:43:11.336Z,99779.81
2023-05-09T07:45:41.856Z,99781.53
2023-05-09T07:48:12.422Z,99789.31
2023-05-09T07:50:44.952Z,99793.63
2023-05-09T07:53:15.557Z,99810.91
2023-05-09T07:55:48.471Z,99824.72
2023-05-09T07:58:19.605Z,99825.56
2023-05-09T08:00:50.209Z,99822.13
2023-05-09T08:03:21.750Z,99839.38
2023-05-09T08:05:57.757Z,99848.88
2023-05-09T08:08:29.188Z,99846.28
2023-05-09T08:10:59.717Z,99836.78
2023-05-09T08:13:30.317Z,99855.75
2023-05-09T08:16:00.955Z,99855.78
2023-05-09T08:18:31.617Z,99860.09
2023-05-09T08:21:03.760Z,99863.53
2023-05-09T08:23:34.317Z,99874.75
2023-05-09T08:26:04.898Z,99880.78
2023-05-09T08:28:35.222Z,99878.22
2023-05-09T08:31:05.746Z,99870.44
2023-05-09T08:33:41.720Z,99885.97
2023-05-09T08:36:14.408Z,99888.56
2023-05-09T08:38:44.901Z,99884.22
2023-05-09T08:41:15.483Z,99897.16
2023-05-09T08:43:46.775Z,99902.31
2023-05-09T08:46:19.072Z,99905.75
2023-05-09T08:48:49.919Z,99908.31
2023-05-09T08:51:22.667Z,99907.44
2023-05-09T08:53:53.857Z,99917.78
2023-05-09T08:56:24.398Z,99922.06
2023-05-09T08:58:55.804Z,99921.16
2023-05-09T09:01:29.079Z,99909.06
2023-05-09T09:03:59.890Z,99926.31
2023-05-09T09:06:32.974Z,99911.59
2023-05-09T09:09:06.929Z,99923.69
2023-05-09T09:11:38.492Z,99936.66
2023-05-09T09:14:14.527Z,99916.75
2023-05-09T09:16:50.861Z,99944.38
2023-05-09T09:19:24.767Z,99958.06
2023-05-09T09:22:01.843Z,99970.97
2023-05-09T09:24:33.412Z,99975.19
2023-05-09T09:27:22.367Z,99977.63
2023-05-09T09:29:58.490Z,99998.19
2023-05-09T09:32:36.471Z,99991.25
2023-05-09T09:35:11.711Z,100003.28
2023-05-09T09:37:48.071Z,99970.34
2023-05-09T09:40:22.433Z,100015.28
2023-05-09T09:42:55.984Z,99999.66
2023-05-09T09:45:26.712Z,100018.59
2023-05-09T09:47:57.369Z,100030.66
2023-05-09T09:50:28.360Z,100039.22
2023-05-09T09:53:01.995Z,100040.91
2023-05-09T09:55:32.834Z,100047.66
2023-05-09T09:58:06.533Z,100047.66
2023-05-09T10:00:39.266Z,100069.94
2023-05-09T10:03:17.152Z,100076.75
2023-05-09T10:05:54.586Z,100079.22
2023-05-09T10:08:33.122Z,100078.28
2023-05-09T10:11:04.864Z,100086.03
2023-05-09T10:13:39.329Z,100058.97
2023-05-09T10:16:14.292Z,100103.94
2023-05-09T10:18:45.982Z,100084.03
2023-05-09T10:21:18.634Z,100100.38
2023-05-09T10:24:00.054Z,100095.09
2023-05-09T10:26:42.545Z,100109.06
2023-05-09T10:29:15.307Z,100084.78
2023-05-09T10:31:50.460Z,100122.00
2023-05-09T10:34:27.939Z,100122.81
2023-05-09T10:36:58.816Z,100122.69
2023-05-09T10:39:31.589Z,100127.75
2023-05-09T10:42:09.537Z,100139.81
2023-05-09T10:44:42.603Z,100140.50
2023-05-09T10:47:14.125Z,100154.22
2023-05-09T10:49:55.328Z,100149.06
2023-05-09T10:52:34.334Z,100160.25
2023-05-09T10:55:12.449Z,100168.75
2023-05-09T10:57:55.492Z,100172.03
2023-05-09T11:00:28.454Z,100168.47
2023-05-09T11:03:10.411Z,100170.13
2023-05-09T11:05:43.175Z,100147.34
2023-05-09T11:08:29.769Z,100201.03
2023-05-09T11:11:09.590Z,100124.66
2023-05-09T11:13:40.876Z,100201.94
2023-05-09T11:16:14.988Z,100203.72
2023-05-09T11:18:58.744Z,100207.16
2023-05-09T11:21:29.951Z,100214.91
2023-05-09T11:24:00.470Z,100214.91
2023-05-09T11:26:37.249Z,100218.34
2023-05-09T11:29:10.808Z,100225.06
2023-05-09T11:32:10.531Z,100230.28
2023-05-09T11:34:40.537Z,100228.63
2023-05-09T11:37:13.505Z,100235.44
2023-05-09T11:40:00.607Z,100226.63
2023-05-09T11:42:36.157Z,100223.03
2023-05-09T11:45:08.285Z,100234.28
2023-05-09T11:47:41.476Z,100158.75
2023-05-09T11:50:17.970Z,100195.28
2023-05-09T11:52:49.390Z,100214.53
2023-05-09T11:55:23.243Z,100126.78
2023-05-09T11:57:57.136Z,100215.25
2023-05-09T12:00:28.932Z,100214.34
2023-05-09T12:03:00.506Z,100183.94
2023-05-09T12:05:31.741Z,100215.13
2023-05-09T12:08:06.892Z,100230.56
2023-05-09T12:10:40.814Z,100234.78
2023-05-09T12:13:14.036Z,100240.06
2023-05-09T12:15:44.800Z,100240.06
2023-05-09T12:18:15.847Z,100232.28
2023-05-09T12:20:48.547Z,100242.66
2023-05-09T12:23:19.453Z,100230.34
2023-05-09T12:25:56.119Z,100203.34
2023-05-09T12:28:30.006Z,100236.34
2023-05-09T12:31:01.324Z,100236.97
2023-05-09T12:33:32.714Z,100131.94
2023-05-09T12:36:08.403Z,100250.75
2023-05-09T12:38:39.141Z,100251.59
2023-05-09T12:41:22.454Z,100244.53
2023-05-09T12:44:06.022Z,100242.13
2023-05-09T12:46:37.637Z,100198.53
2023-05-09T12:49:08.401Z,100248.06
2023-05-09T12:51:40.265Z,100256.75
2023-05-09T12:54:12.189Z,100261.03
2023-05-09T12:56:42.960Z,100260.13
2023-05-09T12:59:22.984Z,100261.91
2023-05-09T13:02:00.811Z,100273.97
2023-05-09T13:04:34.685Z,100268.63
2023-05-09T13:07:11.510Z,100252.91
2023-05-09T13:09:59.273Z,100292.81
2023-05-09T13:12:29.884Z,100297.91
2023-05-09T13:15:02.222Z,100270.16
2023-05-09T13:17:32.892Z,100314.41
2023-05-09T13:20:04.117Z,100307.44
2023-05-09T13:22:35.129Z,100228.19
2023-05-09T13:25:06.190Z,100315.34
2023-05-09T13:27:40.127Z,100317.97
2023-05-09T13:30:17.367Z,100320.53
2023-05-09T13:32:50.535Z,100330.31
2023-05-09T13:35:21.602Z,100329.56
2023-05-09T13:37:52.448Z,100330.34
2023-05-09T13:40:23.312Z,100292.84
2023-05-09T13:42:56.560Z,100331.00
2023-05-09T13:45:28.764Z,100326.69
2023-05-09T13:47:59.467Z,100328.47
2023-05-09T13:50:30.150Z,100328.47
2023-05-09T13:53:01.180Z,100325.09
2023-05-09T13:55:31.902Z,100319.03
2023-05-09T13:58:02.638Z,100311.03
2023-05-09T14:00:37.806Z,100324.06
2023-05-09T14:03:08.530Z,100328.41
2023-05-09T14:05:39.517Z,100325.72
2023-05-09T14:08:10.208Z,100334.38
2023-05-09T14:10:40.824Z,100331.00
2023-05-09T14:13:11.966Z,100330.09
2023-05-09T14:15:44.409Z,100330.09
2023-05-09T14:18:20.766Z,100334.41
2023-05-09T14:20:51.745Z,100333.50
2023-05-09T14:23:26.137Z,100337.75
2023-05-09T14:25:56.716Z,100332.50
2023-05-09T14:28:27.286Z,100342.94
2023-05-09T14:31:02.529Z,100341.28
2023-05-09T14:33:33.240Z,100345.59
2023-05-09T14:36:03.875Z,100325.59
2023-05-09T14:38:34.514Z,100328.16
2023-05-09T14:41:05.240Z,100337.69
2023-05-09T14:43:38.687Z,100346.34
2023-05-09T14:46:10.997Z,100340.22
2023-05-09T14:48:44.341Z,100342.97
2023-05-09T14:51:15.119Z,100342.91
2023-05-09T14:53:48.116Z,100339.50
2023-05-09T14:56:19.740Z,100346.38
2023-05-09T14:58:52.571Z,100353.22
2023-05-09T15:01:25.034Z,100312.44
2023-05-09T15:03:56.578Z,100321.78
2023-05-09T15:06:31.904Z,100360.88
2023-05-09T15:09:02.545Z,100355.81
2023-05-09T15:11:47.053Z,100360.97
2023-05-09T15:14:19.638Z,100353.09
2023-05-09T15:16:52.545Z,100359.09
2023-05-09T15:19:23.470Z,100358.16
2023-05-09T15:21:54.174Z,100356.44
2023-05-09T15:24:25.603Z,100354.69
2023-05-09T15:27:03.270Z,100357.00
2023-05-09T15:29:33.770Z,100359.75
2023-05-09T15:32:10.929Z,100353.81
2023-05-09T15:34:44.260Z,100350.41
2023-05-09T15:37:15.338Z,100352.94
2023-05-09T15:39:49.026Z,100347.53
2023-05-09T15:42:20.376Z,100359.63
2023-05-09T15:44:50.999Z,100363.03
2023-05-09T15:47:26.009Z,100358.72
2023-05-09T15:49:58.765Z,100346.59
2023-05-09T15:52:31.167Z,100353.63
2023-05-09T15:55:04.342Z,100344.03
2023-05-09T15:57:37.841Z,100354.44
2023-05-09T16:00:12.163Z,100357.75
2023-05-09T16:02:50.050Z,100352.53
2023-05-09T16:05:23.616Z,100343.06
2023-05-09T16:07:59.817Z,100359.63
2023-05-09T16:10:30.433Z,100356.22
2023-05-09T16:13:01.048Z,100360.66
2023-05-09T16:15:31.690Z,100355.47
2023-05-09T16:18:08.221Z,100357.97
2023-05-09T16:20:39.008Z,100312.75
2023-05-09T16:23:13.148Z,100357.97
2023-05-09T16:25:44.061Z,100329.31
2023-05-09T16:28:14.633Z,100344.25
2023-05-09T16:30:48.048Z,100351.22
2023-05-09T16:33:23.209Z,100328.59
2023-05-09T16:35:53.803Z,100337.38
2023-05-09T16:38:26.629Z,100340.72
2023-05-09T16:41:00.421Z,100298.78
2023-05-09T16:43:33.827Z,100352.53
2023-05-09T16:46:10.122Z,100350.78
2023-05-09T16:48:46.425Z,100354.34
2023-05-09T16:51:17.084Z,100354.44
2023-05-09T16:53:47.680Z,100361.38
2023-05-09T16:56:18.295Z,100361.31
2023-05-09T16:58:52.535Z,100366.44
2023-05-09T17:01:27.226Z,100369.09
2023-05-09T17:03:59.846Z,100289.66
2023-05-09T17:06:30.504Z,100371.59
2023-05-09T17:09:04.647Z,100356.09
2023-05-09T17:11:35.213Z,100373.53
2023-05-09T17:14:06.154Z,100367.53
2023-05-09T17:16:38.200Z,100359.75
2023-05-09T17:19:12.793Z,100312.81
2023-05-09T17:21:44.115Z,100380.44
2023-05-09T17:24:14.741Z,100374.13
2023-05-09T17:26:45.274Z,100375.03
2023-05-09T17:29:15.777Z,100365.59
2023-05-09T17:31:51.616Z,100371.56
2023-05-09T17:34:27.241Z,100364.63
2023-05-09T17:37:02.855Z,100332.47
2023-05-09T17:39:36.336Z,100376.81
2023-05-09T17:42:10.967Z,100363.75
2023-05-09T17:44:45.167Z,100374.88
2023-05-09T17:47:16.098Z,100334.81
2023-05-09T17:49:49.833Z,100380.34
2023-05-09T17:52:20.826Z,100370.88
2023-05-09T17:54:53.012Z,100383.56
2023-05-09T17:57:24.546Z,100392.13
2023-05-09T17:59:55.008Z,100386.94
2023-05-09T18:02:28.293Z,100367.72
2023-05-09T18:05:03.073Z,100383.38
2023-05-09T18:07:35.421Z,100343.34
2023-05-09T18:10:06.075Z,100379.97
2023-05-09T18:12:39.271Z,100378.13
2023-05-09T18:15:11.398Z,100378.88
2023-05-09T18:17:42.008Z,100374.53
2023-05-09T18:20:15.895Z,100363.28
2023-05-09T18:22:49.306Z,100369.47
2023-05-09T18:25:22.141Z,100313.66
2023-05-09T18:27:52.827Z,100393.56
2023-05-09T18:30:25.921Z,100402.16
2023-05-09T18:33:00.982Z,100398.81
2023-05-09T18:35:33.508Z,100397.13
2023-05-09T18:38:07.009Z,100386.00
2023-05-09T18:40:39.214Z,100391.78
2023-05-09T18:43:14.552Z,100396.84
2023-05-09T18:45:48.795Z,100362.03
2023-05-09T18:48:19.371Z,100411.53
2023-05-09T18:50:55.170Z,100382.84
2023-05-09T18:53:29.794Z,100377.47
2023-05-09T18:56:02.683Z,100412.28
2023-05-09T18:58:33.324Z,100412.28
2023-05-09T19:01:03.855Z,100410.78
2023-05-09T19:03:34.472Z,100429.72
2023-05-09T19:06:11.324Z,100405.34
2023-05-09T19:08:42.079Z,100408.97
2023-05-09T19:11:13.685Z,100403.75
2023-05-09T19:13:49.343Z,100396.78
2023-05-09T19:16:22.426Z,100353.28
2023-05-09T19:18:53.036Z,100403.69
2023-05-09T19:21:25.217Z,100397.63
2023-05-09T19:23:55.804Z,100408.59
2023-05-09T19:26:26.515Z,100393.22
2023-05-09T19:28:57.037Z,100417.44
2023-05-09T19:31:27.623Z,100414.78
2023-05-09T19:33:58.240Z,100405.16
2023-05-09T19:36:30.416Z,100417.28
2023-05-09T19:39:01.342Z,100408.97
2023-05-09T19:41:31.793Z,100405.63
2023-05-09T19:44:02.316Z,100411.59
2023-05-09T19:46:32.893Z,100417.53
2023-05-09T19:49:03.477Z,100407.13
2023-05-09T19:51:35.529Z,100413.28
2023-05-09T19:54:06.053Z,100414.34
2023-05-09T19:56:36.643Z,100391.97
2023-05-09T19:59:07.170Z,100409.38
2023-05-09T20:01:37.778Z,100403.97
2023-05-09T20:04:08.764Z,100390.69
2023-05-09T20:06:40.900Z,100395.03
2023-05-09T20:09:11.527Z,100421.94
2023-05-09T20:11:41.982Z,100419.47
2023-05-09T20:14:12.486Z,100416.84
2023-05-09T20:16:43.059Z,100422.88
2023-05-09T20:19:14.483Z,100414.28
2023-05-09T20:21:46.520Z,100429.78
2023-05-09T20:24:17.037Z,100439.16
2023-05-09T20:26:47.495Z,100427.88
2023-05-09T20:29:17.968Z,100438.41
2023-05-09T20:31:48.515Z,100447.19
2023-05-09T20:34:21.458Z,100453.94
2023-05-09T20:36:55.734Z,100454.66
2023-05-09T20:39:27.514Z,100455.28
2023-05-09T20:42:02.875Z,100462.25
2023-05-09T20:44:33.362Z,100465.66
2023-05-09T20:47:03.830Z,100465.53
2023-05-09T20:49:34.211Z,100462.09
2023-05-09T20:52:06.563Z,100481.03
2023-05-09T20:54:36.961Z,100463.75
2023-05-09T20:57:32.796Z,100444.63
2023-05-09T21:00:03.275Z,100469.63
2023-05-09T21:02:33.735Z,100474.81
2023-05-09T21:05:04.601Z,100467.09
2023-05-09T21:07:36.644Z,100464.53
2023-05-09T21:10:07.550Z,100472.25
2023-05-09T21:12:38.050Z,100458.59
2023-05-09T21:15:09.673Z,100469.69
2023-05-09T21:17:40.137Z,100479.19
2023-05-09T21:20:11.773Z,100473.97
2023-05-09T21:22:43.934Z,100475.63
2023-05-09T21:25:14.847Z,100481.69
2023-05-09T21:27:45.375Z,100461.72
2023-05-09T21:30:15.953Z,100468.84
2023-05-09T21:32:46.607Z,100471.09
2023-05-09T21:35:16.986Z,100477.22
2023-05-09T21:37:51.234Z,100482.47
2023-05-09T21:40:21.989Z,100479.13
2023-05-09T21:42:52.474Z,100476.44
2023-05-09T21:45:22.929Z,100468.41
2023-05-09T21:47:53.452Z,100489.22
2023-05-09T21:50:24.200Z,100487.53
2023-05-09T21:52:56.990Z,100484.22
2023-05-09T21:55:27.577Z,100494.50
2023-05-09T21:57:58.160Z,100495.44
2023-05-09T22:00:28.636Z,100491.09
2023-05-09T22:02:59.450Z,100491.13
2023-05-09T22:05:29.876Z,100498.06
2023-05-09T22:08:01.799Z,100501.56
2023-05-09T22:10:32.242Z,100490.41
2023-05-09T22:13:02.678Z,100499.78
2023-05-09T22:15:33.286Z,100494.81
2023-05-09T22:18:03.752Z,100482.69
2023-05-09T22:20:34.266Z,100481.03
2023-05-09T22:23:06.287Z,100491.41
2023-05-09T22:25:36.705Z,100483.00
2023-05-09T22:28:07.518Z,100490.03
2023-05-09T22:30:38.551Z,100488.22
2023-05-09T22:33:10.532Z,100486.59
2023-05-09T22:35:41.718Z,100477.78
2023-05-09T22:38:13.837Z,100497.81
2023-05-09T22:40:44.393Z,100496.91
2023-05-09T22:43:17.690Z,100484.88
2023-05-09T22:45:48.373Z,100423.91
2023-05-09T22:48:18.943Z,100500.22
2023-05-09T22:50:49.644Z,100508.00
2023-05-09T22:53:21.813Z,100491.50
2023-05-09T22:55:53.368Z,100414.47
2023-05-09T22:58:23.919Z,100511.91
2023-05-09T23:00:54.365Z,100517.25
2023-05-09T23:03:24.962Z,100506.84
2023-05-09T23:05:55.699Z,100508.44
2023-05-09T23:08:27.792Z,100514.44
2023-05-09T23:10:58.200Z,100513.75
2023-05-09T23:13:29.112Z,100508.75
2023-05-09T23:15:59.697Z,100508.81
2023-05-09T23:18:30.207Z,100510.81
2023-05-09T23:21:00.705Z,100516.81
2023-05-09T23:23:32.733Z,100505.56
2023-05-09T23:26:03.118Z,100509.34
2023-05-09T23:28:33.623Z,100515.53
2023-05-09T23:31:04.251Z,100499.34
2023-05-09T23:33:34.823Z,100504.78
2023-05-09T23:36:05.762Z,100515.38
2023-05-09T23:38:37.946Z,100511.19
2023-05-09T23:41:08.412Z,100509.63
2023-05-09T23:43:38.814Z,100508.81
2023-05-09T23:46:09.330Z,100505.50
2023-05-09T23:48:39.913Z,100495.19
2023-05-09T23:51:10.338Z,100500.28
2023-05-09T23:53:43.943Z,100505.66
2023-05-09T23:56:14.287Z,100507.78
2023-05-09T23:58:44.734Z,100501.13
